American Life — WDI7069 — position and weather

sailwx.info

Track history (hours):
 
Tides and Currents Weather Stations Pressure Air Temp Water Temp Dewpoint Dewpoint Depression Visibility Wind Speed Wind Dir Waves Ship Positions

American Life

Owner: American Commercial Lines LLC, Jeffersonville, IN. More information available from US FCC via Universal Licensing System and Coast Guard Vessel Documentation Center.

Last reported at 2017-Nov-01 20:31 UTC. Time now 2017-Nov-18 21:12 UTC.
Position N 29°51' W 091°55'.
Warning: this ship's position is 17 days out of date.

Length 24 m; draft 3.1 m.

Type: Towing. MMSI: 367725060.

Date/timePositionNaut miles runAvg speedWind from/ knotsBaromVisibWave heightAir tempDewpointWater temp
2017-Nov-01 20:31N 29°51' W 091°55'0 4.9
2017-Nov-01 20:29N 29°51' W 091°55'2 4.6
2017-Nov-01 19:58N 29°50' W 091°57'3 5.8
2017-Nov-01 19:30N 29°50' W 092°00'3 5.9
2017-Nov-01 19:00N 29°49' W 092°04'3 6.7
2017-Nov-01 18:30N 29°47' W 092°07'76 4.6
2017-Nov-01 02:00N 30°04' W 093°33'3 5.8
2017-Nov-01 01:27N 30°04' W 093°37'3 5.7
2017-Nov-01 01:00N 30°04' W 093°39'  
2017-Oct-29 14:43N 29°58' W 093°52'  
2017-Oct-26 14:35N 30°01' W 094°01'1 7.5
2017-Oct-26 14:27N 30°01' W 093°60'8 0.9
2017-Oct-26 05:42N 29°57' W 093°52'0 0.0
2017-Oct-26 05:30N 29°57' W 093°52'0 0.0
2017-Oct-26 04:58N 29°57' W 093°52'0 0.0
2017-Oct-26 04:12N 29°57' W 093°52'0 0.0
2017-Oct-25 14:55N 29°58' W 093°52'0 0.0
2017-Oct-25 14:30N 29°58' W 093°52'0 0.0
2017-Oct-25 14:00N 29°58' W 093°52'0 0.0
2017-Oct-24 08:03N 29°57' W 093°52'0 0.1
2017-Oct-24 08:00N 29°57' W 093°52'0 0.0
2017-Oct-24 05:32N 29°57' W 093°52'0 0.0
2017-Oct-24 05:26N 29°57' W 093°52'0 0.0
2017-Oct-24 04:53N 29°57' W 093°52'0 0.0
2017-Oct-24 04:26N 29°57' W 093°52'0 0.0
2017-Oct-24 04:00N 29°57' W 093°52'0 0.0
2017-Oct-23 13:56N 29°57' W 093°52'0 0.0
2017-Oct-23 13:30N 29°57' W 093°52'0 0.0
2017-Oct-23 12:59N 29°57' W 093°52'  
Track history (hours):
 
Tides and Currents Weather Stations Pressure Air Temp Water Temp Dewpoint Dewpoint Depression Visibility Wind Speed Wind Dir Waves Ship Positions

American Life

Owner: American Commercial Lines LLC, Jeffersonville, IN. More information available from US FCC via Universal Licensing System and Coast Guard Vessel Documentation Center.

Last reported at 2017-Nov-01 20:31 UTC. Time now 2017-Nov-18 21:12 UTC.
Position N 29°51' W 091°55'.
Warning: this ship's position is 17 days out of date.

Length 24 m; draft 3.1 m.

Type: Towing. MMSI: 367725060.

Date/timePositionNaut miles runAvg speedWind from/ knotsBaromVisibWave heightAir tempDewpointWater temp
2017-Nov-01 20:31N 29°51' W 091°55'0 4.9
2017-Nov-01 20:29N 29°51' W 091°55'2 4.6
2017-Nov-01 19:58N 29°50' W 091°57'3 5.8
2017-Nov-01 19:30N 29°50' W 092°00'3 5.9
2017-Nov-01 19:00N 29°49' W 092°04'3 6.7
2017-Nov-01 18:30N 29°47' W 092°07'76 4.6
2017-Nov-01 02:00N 30°04' W 093°33'3 5.8
2017-Nov-01 01:27N 30°04' W 093°37'3 5.7
2017-Nov-01 01:00N 30°04' W 093°39'  
2017-Oct-29 14:43N 29°58' W 093°52'  
2017-Oct-26 14:35N 30°01' W 094°01'1 7.5
2017-Oct-26 14:27N 30°01' W 093°60'8 0.9
2017-Oct-26 05:42N 29°57' W 093°52'0 0.0
2017-Oct-26 05:30N 29°57' W 093°52'0 0.0
2017-Oct-26 04:58N 29°57' W 093°52'0 0.0
2017-Oct-26 04:12N 29°57' W 093°52'0 0.0
2017-Oct-25 14:55N 29°58' W 093°52'0 0.0
2017-Oct-25 14:30N 29°58' W 093°52'0 0.0
2017-Oct-25 14:00N 29°58' W 093°52'0 0.0
2017-Oct-24 08:03N 29°57' W 093°52'0 0.1
2017-Oct-24 08:00N 29°57' W 093°52'0 0.0
2017-Oct-24 05:32N 29°57' W 093°52'0 0.0
2017-Oct-24 05:26N 29°57' W 093°52'0 0.0
2017-Oct-24 04:53N 29°57' W 093°52'0 0.0
2017-Oct-24 04:26N 29°57' W 093°52'0 0.0
2017-Oct-24 04:00N 29°57' W 093°52'0 0.0
2017-Oct-23 13:56N 29°57' W 093°52'0 0.0
2017-Oct-23 13:30N 29°57' W 093°52'0 0.0
2017-Oct-23 12:59N 29°57' W 093°52'  

Dump ship's entire track history